Time;durP1;ratioP1;P1;durP2;ratioP2;P2;SDS_P1;SDS_P2;PMS_P1;PMS_P2;Temp;Humidity;BMP_temperature;BMP_pressure;BME280_temperature;BME280_humidity;BME280_pressure;Samples;Min_cycle;Max_cycle;Signal;HPM_P1;HPM_P2
2022/07/22 00:01:09;;;;;;;14.57;3.20;;;15.50;99.90;;;;;;5157805;27;20035;-83
2022/07/22 00:03:34;;;;;;;20.10;3.05;;;15.40;99.90;;;;;;5157755;27;20083;-84
2022/07/22 00:06:00;;;;;;;9.10;2.70;;;15.40;99.90;;;;;;5158107;27;20386;-84
2022/07/22 00:08:26;;;;;;;18.27;4.05;;;15.40;99.90;;;;;;5157624;27;20489;-84
2022/07/22 00:10:52;;;;;;;9.32;2.55;;;15.40;99.90;;;;;;5140407;27;20482;-83
2022/07/22 00:13:17;;;;;;;14.23;2.40;;;15.50;99.90;;;;;;5156803;27;20087;-83
2022/07/22 00:15:43;;;;;;;18.52;3.30;;;15.50;99.90;;;;;;5139944;27;20417;-84
2022/07/22 00:18:09;;;;;;;9.18;2.53;;;15.40;99.90;;;;;;5156118;27;20122;-83
2022/07/22 00:20:35;;;;;;;12.05;2.60;;;15.40;99.90;;;;;;5154083;27;20504;-83
2022/07/22 00:23:01;;;;;;;11.77;2.50;;;15.40;99.90;;;;;;5158632;27;20548;-84
2022/07/22 00:25:28;;;;;;;13.07;2.88;;;15.40;99.90;;;;;;5138056;27;20096;-84
2022/07/22 00:27:54;;;;;;;17.30;3.55;;;15.40;99.90;;;;;;5158254;27;20050;-84
2022/07/22 00:30:20;;;;;;;14.85;2.67;;;15.40;99.90;;;;;;5157142;27;20039;-84
2022/07/22 00:32:46;;;;;;;12.38;2.33;;;15.40;99.90;;;;;;5139212;27;20043;-83
2022/07/22 00:35:11;;;;;;;10.75;2.90;;;15.40;99.90;;;;;;5152887;27;20038;-83
2022/07/22 00:37:38;;;;;;;11.50;2.63;;;15.40;99.90;;;;;;5157052;27;20031;-83
2022/07/22 00:40:05;;;;;;;11.95;2.15;;;15.40;99.90;;;;;;5146630;27;20034;-84
2022/07/22 00:42:31;;;;;;;6.88;2.38;;;15.40;99.90;;;;;;5138445;27;20042;-83
2022/07/22 00:44:56;;;;;;;9.88;2.00;;;15.40;99.90;;;;;;5137372;27;20084;-83
2022/07/22 00:47:23;;;;;;;12.23;2.13;;;15.50;99.90;;;;;;5155220;27;20050;-84
2022/07/22 00:49:49;;;;;;;8.57;1.98;;;15.40;99.90;;;;;;5150315;27;20043;-84
2022/07/22 00:52:14;;;;;;;13.52;2.63;;;15.40;99.90;;;;;;5153074;27;20086;-83
2022/07/22 00:54:41;;;;;;;13.95;2.90;;;15.40;99.90;;;;;;5155702;27;20073;-83
2022/07/22 00:57:06;;;;;;;10.52;2.15;;;15.40;99.90;;;;;;5156917;27;20047;-84
2022/07/22 00:59:32;;;;;;;12.80;2.72;;;15.40;99.90;;;;;;5156798;27;20428;-83
2022/07/22 01:01:58;;;;;;;7.38;1.88;;;15.40;99.90;;;;;;5155939;27;20039;-83
2022/07/22 01:04:24;;;;;;;9.55;2.00;;;15.40;99.90;;;;;;5157614;27;20053;-84
2022/07/22 01:06:49;;;;;;;13.05;2.40;;;15.40;99.90;;;;;;5144392;27;20035;-84
2022/07/22 01:09:15;;;;;;;11.80;1.80;;;15.40;99.90;;;;;;5138845;27;20422;-83
2022/07/22 01:11:42;;;;;;;13.02;1.98;;;15.40;99.90;;;;;;5156340;27;20124;-83
2022/07/22 01:14:08;;;;;;;10.02;2.00;;;15.40;99.90;;;;;;5156358;27;20133;-82
2022/07/22 01:16:34;;;;;;;9.32;1.90;;;15.40;99.90;;;;;;5119570;27;20397;-82
2022/07/22 01:19:00;;;;;;;9.90;2.67;;;15.40;99.90;;;;;;5136202;27;20039;-83
2022/07/22 01:21:26;;;;;;;10.00;2.35;;;15.40;99.90;;;;;;5140782;27;20360;-83
2022/07/22 01:23:52;;;;;;;11.32;2.78;;;15.40;99.90;;;;;;5156889;27;20042;-83
2022/07/22 01:26:17;;;;;;;10.93;2.15;;;15.30;99.90;;;;;;5155290;27;20446;-83
2022/07/22 01:28:43;;;;;;;10.82;1.90;;;15.30;99.90;;;;;;5156510;27;20045;-83
2022/07/22 01:31:09;;;;;;;9.98;1.75;;;15.30;99.90;;;;;;5130292;27;20042;-83
2022/07/22 01:33:36;;;;;;;10.23;2.42;;;15.30;99.90;;;;;;5147022;27;20482;-83
2022/07/22 01:36:03;;;;;;;11.68;2.30;;;15.30;99.90;;;;;;5156303;27;20098;-83
2022/07/22 01:38:29;;;;;;;16.33;4.22;;;15.30;99.90;;;;;;5154549;27;20114;-83
2022/07/22 01:40:55;;;;;;;8.88;2.05;;;15.30;99.90;;;;;;5137555;27;20522;-83
2022/07/22 01:43:21;;;;;;;4.82;1.50;;;15.30;99.90;;;;;;5155044;27;20393;-83
2022/07/22 01:45:49;;;;;;;9.70;2.17;;;15.30;99.90;;;;;;5136246;27;20062;-83
2022/07/22 01:48:16;;;;;;;6.65;1.67;;;15.30;99.90;;;;;;5155616;27;20045;-84
2022/07/22 01:50:43;;;;;;;9.07;1.58;;;15.20;99.90;;;;;;5143660;27;20118;-83
2022/07/22 01:53:09;;;;;;;6.72;2.10;;;15.30;99.90;;;;;;5136017;27;20121;-83
2022/07/22 01:55:35;;;;;;;5.05;1.63;;;15.30;99.90;;;;;;5128302;27;20134;-83
2022/07/22 01:58:01;;;;;;;7.30;1.58;;;15.20;99.90;;;;;;5152563;27;20103;-83
2022/07/22 02:00:27;;;;;;;6.55;1.70;;;15.20;99.90;;;;;;5156371;27;20042;-84
2022/07/22 02:02:52;;;;;;;6.05;1.90;;;15.20;99.90;;;;;;5155385;27;20045;-83
2022/07/22 02:05:18;;;;;;;5.07;1.67;;;15.20;99.90;;;;;;5153527;27;20072;-83
2022/07/22 02:07:44;;;;;;;8.13;1.48;;;15.20;99.90;;;;;;5154202;27;20035;-83
2022/07/22 02:10:10;;;;;;;14.18;3.58;;;15.10;99.90;;;;;;5155260;27;20030;-83
2022/07/22 02:12:35;;;;;;;8.07;2.28;;;15.10;99.90;;;;;;5134741;27;20038;-84
2022/07/22 02:15:02;;;;;;;7.85;1.67;;;15.10;99.90;;;;;;5155223;27;20042;-84
2022/07/22 02:17:28;;;;;;;16.08;2.83;;;15.10;99.90;;;;;;5150847;27;20042;-84
2022/07/22 02:19:53;;;;;;;11.18;2.10;;;15.10;99.90;;;;;;5135730;27;20111;-83
2022/07/22 02:22:19;;;;;;;12.32;1.60;;;15.10;99.90;;;;;;5154984;27;20118;-84
2022/07/22 02:24:45;;;;;;;7.90;1.98;;;15.00;99.90;;;;;;5154404;27;20038;-83
2022/07/22 02:27:12;;;;;;;9.18;1.85;;;15.00;99.90;;;;;;5154864;27;20047;-84
2022/07/22 02:29:37;;;;;;;8.15;1.48;;;15.00;99.90;;;;;;5155068;27;20047;-83
2022/07/22 02:32:04;;;;;;;7.28;1.73;;;15.10;99.90;;;;;;5149118;27;20187;-83
2022/07/22 02:34:29;;;;;;;7.22;1.85;;;15.10;99.90;;;;;;5152317;27;20573;-83
2022/07/22 02:36:55;;;;;;;9.52;1.73;;;15.10;99.90;;;;;;5153918;27;20126;-83
2022/07/22 02:39:21;;;;;;;7.45;2.17;;;15.10;99.90;;;;;;5146322;27;20035;-83
2022/07/22 02:41:47;;;;;;;11.95;2.00;;;15.10;99.90;;;;;;5136380;27;20527;-83
2022/07/22 02:44:13;;;;;;;8.25;1.80;;;15.10;99.90;;;;;;5132276;27;20050;-83
2022/07/22 02:46:39;;;;;;;8.25;1.80;;;15.10;99.90;;;;;;5135191;27;20050;-83
2022/07/22 02:49:05;;;;;;;9.38;2.42;;;15.10;99.90;;;;;;5148723;27;20039;-83
2022/07/22 02:51:31;;;;;;;6.65;1.83;;;15.10;99.90;;;;;;5148920;27;20401;-83
2022/07/22 02:53:56;;;;;;;6.43;1.65;;;15.10;99.90;;;;;;5134136;27;20135;-83
2022/07/22 02:56:22;;;;;;;6.68;1.65;;;15.10;99.90;;;;;;5131003;27;20042;-83
2022/07/22 02:58:51;;;;;;;5.65;1.50;;;15.10;99.90;;;;;;5155437;27;20104;-83
2022/07/22 03:01:18;;;;;;;5.70;1.60;;;15.10;99.90;;;;;;5152454;27;20043;-83
2022/07/22 03:03:44;;;;;;;9.48;1.67;;;15.10;99.90;;;;;;5136260;27;20065;-83
2022/07/22 03:06:10;;;;;;;7.18;1.95;;;15.10;99.90;;;;;;5154192;27;20474;-83
2022/07/22 03:08:36;;;;;;;8.63;1.70;;;15.10;99.90;;;;;;5153391;27;20478;-83
2022/07/22 03:11:02;;;;;;;6.03;2.53;;;15.10;99.90;;;;;;5155317;27;20041;-83
2022/07/22 03:13:28;;;;;;;9.75;2.30;;;15.10;99.90;;;;;;5150736;27;20031;-83
2022/07/22 03:15:54;;;;;;;8.77;1.67;;;15.10;99.90;;;;;;5129642;27;20078;-83
2022/07/22 03:18:20;;;;;;;5.45;2.03;;;15.10;99.90;;;;;;5152511;27;20039;-83
2022/07/22 03:20:46;;;;;;;10.35;1.92;;;15.10;99.90;;;;;;5116036;28;20049;-83
2022/07/22 03:23:11;;;;;;;6.72;1.70;;;15.10;99.90;;;;;;5140931;27;20043;-83
2022/07/22 03:25:38;;;;;;;8.27;1.77;;;15.00;99.90;;;;;;5155191;27;20486;-83
2022/07/22 03:28:05;;;;;;;11.82;2.30;;;15.10;99.90;;;;;;5152521;27;20066;-83
2022/07/22 03:30:31;;;;;;;8.80;1.77;;;15.10;99.90;;;;;;5116153;28;20090;-83
2022/07/22 03:32:57;;;;;;;8.93;1.52;;;15.00;99.90;;;;;;5126965;27;20070;-83
2022/07/22 03:35:22;;;;;;;10.23;2.20;;;15.00;99.90;;;;;;5153313;27;20588;-83
2022/07/22 03:37:48;;;;;;;5.00;1.73;;;15.00;99.90;;;;;;5154057;27;20031;-83
2022/07/22 03:40:14;;;;;;;10.77;2.00;;;15.00;99.90;;;;;;5126989;27;20073;-83
2022/07/22 03:42:41;;;;;;;4.47;1.38;;;15.10;99.90;;;;;;5154056;27;20038;-83
2022/07/22 03:45:07;;;;;;;7.75;1.50;;;15.10;99.90;;;;;;5151764;27;20043;-83
2022/07/22 03:47:33;;;;;;;7.05;1.80;;;15.10;99.90;;;;;;5134163;27;20497;-83
2022/07/22 03:49:59;;;;;;;7.50;1.70;;;15.10;99.90;;;;;;5152573;27;20041;-83
2022/07/22 03:52:25;;;;;;;8.60;1.92;;;15.10;99.90;;;;;;5130519;28;20051;-82
2022/07/22 03:54:51;;;;;;;5.32;1.70;;;15.10;99.90;;;;;;5134098;28;20122;-83
2022/07/22 03:57:17;;;;;;;7.47;1.83;;;15.10;99.90;;;;;;5150712;27;20185;-83
2022/07/22 03:59:42;;;;;;;13.25;2.00;;;15.10;99.90;;;;;;5153580;27;20042;-83
2022/07/22 04:02:08;;;;;;;8.55;1.80;;;15.10;99.90;;;;;;5154890;27;20138;-83
2022/07/22 04:04:34;;;;;;;6.40;1.73;;;15.10;99.90;;;;;;5151964;27;20050;-83
2022/07/22 04:06:59;;;;;;;13.63;2.05;;;15.10;99.90;;;;;;5154846;27;20039;-83
2022/07/22 04:09:25;;;;;;;8.85;1.70;;;15.10;99.90;;;;;;5152558;27;20095;-83
2022/07/22 04:11:51;;;;;;;9.23;1.75;;;15.10;99.90;;;;;;5135336;27;20042;-83
2022/07/22 04:14:17;;;;;;;7.57;1.70;;;15.10;99.90;;;;;;5153683;27;20050;-83
2022/07/22 04:16:43;;;;;;;6.75;2.25;;;15.10;99.90;;;;;;5145101;27;20050;-83
2022/07/22 04:19:10;;;;;;;10.43;3.05;;;15.10;99.90;;;;;;5142137;27;20042;-83
2022/07/22 04:21:36;;;;;;;10.13;2.05;;;15.10;99.90;;;;;;5157405;27;20114;-83
2022/07/22 04:24:01;;;;;;;5.80;1.63;;;15.10;99.90;;;;;;5157308;27;20553;-83
2022/07/22 04:26:27;;;;;;;7.22;2.47;;;15.10;99.90;;;;;;5156369;27;20037;-83
2022/07/22 04:28:53;;;;;;;8.27;1.77;;;15.10;99.90;;;;;;5156147;27;20047;-83
2022/07/22 04:31:18;;;;;;;11.88;2.10;;;15.10;99.90;;;;;;5158613;27;20047;-83
2022/07/22 04:33:44;;;;;;;7.82;1.73;;;15.10;99.90;;;;;;5156550;27;20047;-83
2022/07/22 04:36:10;;;;;;;5.72;1.60;;;15.10;99.90;;;;;;5156430;27;20039;-83
2022/07/22 04:38:36;;;;;;;4.10;1.58;;;15.10;99.90;;;;;;5155149;27;20038;-83
2022/07/22 04:41:02;;;;;;;6.30;1.52;;;15.10;99.90;;;;;;5144674;27;20046;-83
2022/07/22 04:43:28;;;;;;;5.68;1.98;;;15.10;99.90;;;;;;5158046;27;20091;-83
2022/07/22 04:45:55;;;;;;;6.05;2.20;;;15.10;99.90;;;;;;5148738;27;20051;-83
2022/07/22 04:48:21;;;;;;;8.52;1.77;;;15.20;99.90;;;;;;5151078;27;20050;-83
2022/07/22 04:50:47;;;;;;;5.68;1.70;;;15.20;99.90;;;;;;5156157;27;20038;-83
2022/07/22 04:53:13;;;;;;;6.05;1.80;;;15.20;99.90;;;;;;5151269;27;20097;-83
2022/07/22 04:55:39;;;;;;;8.13;1.52;;;15.20;99.90;;;;;;5135025;27;20396;-83
2022/07/22 04:58:05;;;;;;;8.05;1.75;;;15.20;99.90;;;;;;5152432;27;20039;-83
2022/07/22 05:00:31;;;;;;;6.88;1.42;;;15.20;99.90;;;;;;5157078;27;20553;-83
2022/07/22 05:02:56;;;;;;;4.93;1.55;;;15.20;99.90;;;;;;5157634;27;20043;-83
2022/07/22 05:05:23;;;;;;;9.38;1.92;;;15.20;99.90;;;;;;5150640;27;20043;-83
2022/07/22 05:07:49;;;;;;;5.70;1.48;;;15.20;99.90;;;;;;5151393;27;20118;-83
2022/07/22 05:10:15;;;;;;;9.93;2.00;;;15.30;99.90;;;;;;5136991;27;20114;-83
2022/07/22 05:12:41;;;;;;;11.73;1.75;;;15.30;99.90;;;;;;5151771;27;20035;-83
2022/07/22 05:15:07;;;;;;;4.72;1.42;;;15.20;99.90;;;;;;5156844;27;20455;-83
2022/07/22 05:17:33;;;;;;;8.65;1.60;;;15.20;99.90;;;;;;5152715;27;20123;-83
2022/07/22 05:19:58;;;;;;;7.63;2.03;;;15.30;99.90;;;;;;5152667;27;20465;-83
2022/07/22 05:22:24;;;;;;;6.45;1.70;;;15.20;99.90;;;;;;5155235;27;20387;-83
2022/07/22 05:24:51;;;;;;;6.13;1.58;;;15.30;99.90;;;;;;5156201;27;20046;-83
2022/07/22 05:27:16;;;;;;;6.50;1.60;;;15.30;99.90;;;;;;5156113;27;20045;-83
2022/07/22 05:29:42;;;;;;;7.70;1.08;;;15.30;99.90;;;;;;5154915;27;20050;-83
2022/07/22 05:32:08;;;;;;;8.63;1.83;;;15.30;99.90;;;;;;5156188;27;20076;-83
2022/07/22 05:34:33;;;;;;;9.52;2.03;;;15.30;99.90;;;;;;5148277;27;20054;-83
2022/07/22 05:36:59;;;;;;;6.43;1.88;;;15.30;99.90;;;;;;5154458;27;20038;-83
2022/07/22 05:39:25;;;;;;;7.35;1.90;;;15.30;99.90;;;;;;5148401;27;20031;-83
2022/07/22 05:41:51;;;;;;;5.47;1.75;;;15.40;99.90;;;;;;5148789;27;20478;-82
2022/07/22 05:44:17;;;;;;;7.15;1.60;;;15.40;99.90;;;;;;5143486;27;20125;-82
2022/07/22 05:46:43;;;;;;;6.43;2.58;;;15.40;99.90;;;;;;5136549;27;20165;-82
2022/07/22 05:49:08;;;;;;;6.78;1.95;;;15.40;99.90;;;;;;5150955;27;20129;-83
2022/07/22 05:51:34;;;;;;;4.28;1.30;;;15.40;99.90;;;;;;5136834;27;20047;-85
2022/07/22 05:54:02;;;;;;;10.18;1.67;;;15.40;99.90;;;;;;5140415;27;20039;-83
2022/07/22 05:56:28;;;;;;;9.70;1.80;;;15.50;99.90;;;;;;5151198;27;20110;-83
2022/07/22 05:58:55;;;;;;;7.95;1.42;;;15.50;99.90;;;;;;5150622;27;20043;-83
2022/07/22 06:01:21;;;;;;;10.77;2.10;;;15.60;99.90;;;;;;5156625;27;20060;-84
2022/07/22 06:03:47;;;;;;;5.82;1.70;;;15.60;99.90;;;;;;5154518;27;20039;-83
2022/07/22 06:06:13;;;;;;;4.53;1.58;;;15.70;99.90;;;;;;5156671;27;20053;-83
2022/07/22 06:08:39;;;;;;;11.02;2.00;;;15.70;99.90;;;;;;5152108;27;20417;-83
2022/07/22 06:11:05;;;;;;;10.15;2.03;;;15.70;99.90;;;;;;5138408;27;20054;-84
2022/07/22 06:13:31;;;;;;;9.68;1.85;;;15.80;99.90;;;;;;5156466;27;20070;-85
2022/07/22 06:15:58;;;;;;;3.92;1.40;;;15.80;99.90;;;;;;5154740;27;20208;-84
2022/07/22 06:18:23;;;;;;;5.55;1.40;;;15.80;99.90;;;;;;5147469;27;20055;-85
2022/07/22 06:20:49;;;;;;;8.20;1.45;;;15.80;99.90;;;;;;5136450;27;20098;-86
2022/07/22 06:23:15;;;;;;;8.05;3.40;;;15.80;99.90;;;;;;5156081;27;20050;-84
2022/07/22 06:25:41;;;;;;;5.75;1.60;;;15.80;99.90;;;;;;5153909;27;20130;-83
2022/07/22 06:28:06;;;;;;;7.13;1.70;;;15.90;99.90;;;;;;5133052;27;20469;-84
2022/07/22 06:30:32;;;;;;;5.82;1.52;;;15.90;99.90;;;;;;5131129;27;20103;-83
2022/07/22 06:32:58;;;;;;;9.13;1.77;;;15.90;99.90;;;;;;5154210;27;20035;-84
2022/07/22 06:35:24;;;;;;;4.07;1.30;;;15.90;99.90;;;;;;5137272;27;20054;-84
2022/07/22 06:37:50;;;;;;;6.20;1.50;;;15.90;99.90;;;;;;5154640;27;20112;-84
2022/07/22 06:40:16;;;;;;;7.28;1.70;;;16.00;99.90;;;;;;5155114;27;20114;-84
2022/07/22 06:42:42;;;;;;;8.43;1.50;;;15.90;99.90;;;;;;5148370;27;20559;-83
2022/07/22 06:45:08;;;;;;;10.90;2.13;;;16.00;99.90;;;;;;5135048;27;20043;-84
2022/07/22 06:47:35;;;;;;;4.95;1.30;;;15.90;99.90;;;;;;5137123;27;20047;-83
2022/07/22 06:50:02;;;;;;;4.35;1.50;;;16.00;99.90;;;;;;5154687;27;20053;-86
2022/07/22 06:52:28;;;;;;;4.80;1.63;;;16.00;99.90;;;;;;5136356;27;20051;-85
2022/07/22 06:54:54;;;;;;;4.45;1.63;;;16.00;99.90;;;;;;5135902;27;20053;-85
2022/07/22 06:57:20;;;;;;;5.90;1.40;;;16.10;99.90;;;;;;5155640;27;20066;-85
2022/07/22 06:59:45;;;;;;;13.07;2.45;;;16.10;99.90;;;;;;5135218;27;20046;-85
2022/07/22 07:02:11;;;;;;;8.05;1.40;;;16.10;99.90;;;;;;5155361;27;20371;-85
2022/07/22 07:04:37;;;;;;;10.85;1.65;;;16.10;99.90;;;;;;5154229;27;20046;-83
2022/07/22 07:07:03;;;;;;;7.28;1.65;;;16.20;99.90;;;;;;5154607;27;20073;-85
2022/07/22 07:09:28;;;;;;;8.93;1.35;;;16.20;99.90;;;;;;5134370;27;20478;-85
2022/07/22 07:11:54;;;;;;;5.10;1.95;;;16.30;99.90;;;;;;5136658;27;20406;-84
2022/07/22 07:14:20;;;;;;;6.40;1.25;;;16.30;99.90;;;;;;5142127;27;20054;-85
2022/07/22 07:16:45;;;;;;;7.55;1.33;;;16.30;99.90;;;;;;5134366;27;20047;-84
2022/07/22 07:19:11;;;;;;;12.10;2.30;;;16.30;99.90;;;;;;5144435;27;20098;-85
2022/07/22 07:21:37;;;;;;;7.65;1.50;;;16.40;99.90;;;;;;5145261;27;20043;-84
2022/07/22 07:24:03;;;;;;;5.90;1.95;;;16.40;99.90;;;;;;5155154;27;20082;-85
2022/07/22 07:26:29;;;;;;;8.30;1.58;;;16.40;99.90;;;;;;5154183;27;20039;-85
2022/07/22 07:28:55;;;;;;;3.63;1.10;;;16.40;99.90;;;;;;5154358;27;20091;-88
2022/07/22 07:31:20;;;;;;;8.45;1.60;;;16.40;99.90;;;;;;5136659;27;20122;-87
2022/07/22 07:33:46;;;;;;;3.38;1.02;;;16.50;99.90;;;;;;5137026;27;20055;-86
2022/07/22 07:36:12;;;;;;;6.88;1.73;;;16.50;99.90;;;;;;5140427;27;20035;-86
2022/07/22 07:38:38;;;;;;;6.40;1.50;;;16.50;99.90;;;;;;5155145;27;20051;-87
2022/07/22 07:41:03;;;;;;;11.18;1.60;;;16.50;99.90;;;;;;5154002;27;20110;-86
2022/07/22 07:43:29;;;;;;;10.00;1.35;;;16.60;99.90;;;;;;5154247;27;20362;-87
2022/07/22 07:45:55;;;;;;;11.50;1.60;;;16.60;99.90;;;;;;5151655;27;20049;-86
2022/07/22 07:48:21;;;;;;;9.30;1.50;;;16.60;99.90;;;;;;5133481;28;20039;-85
2022/07/22 07:50:46;;;;;;;8.45;1.40;;;16.60;99.90;;;;;;5136636;27;20078;-86
2022/07/22 07:53:16;;;;;;;15.00;2.25;;;16.70;99.90;;;;;;5156233;27;20051;-83
2022/07/22 07:55:42;;;;;;;10.07;2.55;;;16.70;99.90;;;;;;5157108;27;20187;-84
2022/07/22 07:58:08;;;;;;;5.22;1.45;;;16.70;99.90;;;;;;5139379;27;20110;-84
2022/07/22 08:00:34;;;;;;;10.00;1.52;;;16.70;99.90;;;;;;5119636;27;20047;-84
2022/07/22 08:03:02;;;;;;;4.72;0.90;;;16.70;99.90;;;;;;5158083;27;20087;-84
2022/07/22 08:05:28;;;;;;;4.88;1.50;;;16.70;99.90;;;;;;5158600;27;20541;-84
2022/07/22 08:07:54;;;;;;;5.25;1.35;;;16.80;99.90;;;;;;5157473;27;20031;-84
2022/07/22 08:10:21;;;;;;;5.30;1.50;;;16.80;99.90;;;;;;5156889;27;20508;-84
2022/07/22 08:12:47;;;;;;;7.65;1.63;;;16.80;99.90;;;;;;5139243;27;20077;-85
2022/07/22 08:15:13;;;;;;;5.22;1.38;;;16.70;99.90;;;;;;5158759;27;20082;-84
2022/07/22 08:17:39;;;;;;;5.20;1.50;;;16.70;99.90;;;;;;5124942;27;20086;-85
2022/07/22 08:20:05;;;;;;;11.82;1.55;;;16.70;99.90;;;;;;5119477;27;20051;-85
2022/07/22 08:22:31;;;;;;;9.50;1.15;;;16.70;99.90;;;;;;5151139;27;20046;-86
2022/07/22 08:24:57;;;;;;;12.70;1.52;;;16.70;99.90;;;;;;5138951;27;20477;-85
2022/07/22 08:27:23;;;;;;;7.85;1.30;;;16.60;99.90;;;;;;5137893;27;20076;-83
2022/07/22 08:29:48;;;;;;;3.78;1.17;;;16.60;99.90;;;;;;5158556;27;20057;-88
2022/07/22 08:32:14;;;;;;;6.95;1.00;;;16.50;99.90;;;;;;5156589;27;20474;-91
2022/07/22 08:34:40;;;;;;;8.82;1.15;;;16.40;99.90;;;;;;5139768;27;20050;-87
2022/07/22 08:37:06;;;;;;;3.65;0.80;;;16.40;99.90;;;;;;5156086;27;20050;-86
2022/07/22 08:39:35;;;;;;;8.02;1.00;;;16.30;99.90;;;;;;5125420;27;20054;-87
2022/07/22 08:42:01;;;;;;;8.68;0.93;;;16.40;99.90;;;;;;5131713;27;20038;-86
2022/07/22 08:44:33;;;;;;;10.57;1.50;;;16.30;99.90;;;;;;5137079;27;20406;-87
2022/07/22 08:47:00;;;;;;;4.28;1.00;;;16.30;99.90;;;;;;5142579;27;20045;-87
2022/07/22 08:49:26;;;;;;;5.32;1.00;;;16.40;99.90;;;;;;5156596;27;20078;-88
2022/07/22 08:51:53;;;;;;;4.38;0.80;;;16.40;99.90;;;;;;5137422;27;20049;-87
2022/07/22 08:54:19;;;;;;;3.05;1.13;;;16.40;99.90;;;;;;5157925;27;20046;-87
2022/07/22 08:56:48;;;;;;;2.55;0.70;;;16.50;99.90;;;;;;5156756;27;20386;-85
2022/07/22 08:59:14;;;;;;;5.47;1.02;;;16.50;99.90;;;;;;5154991;27;20046;-83
2022/07/22 09:02:00;;;;;;;5.05;0.73;;;16.50;99.90;;;;;;5144625;27;20039;-85
2022/07/22 09:04:26;;;;;;;10.32;1.17;;;16.60;99.90;;;;;;5117809;27;20054;-86
2022/07/22 09:06:52;;;;;;;4.53;0.85;;;16.60;99.90;;;;;;5136418;27;20039;-86
2022/07/22 09:09:33;;;;;;;4.15;0.55;;;16.70;99.90;;;;;;5136976;27;20515;-86
2022/07/22 09:12:08;;;;;;;6.60;1.10;;;16.70;99.90;;;;;;5137077;27;20055;-83
2022/07/22 09:14:53;;;;;;;1.90;0.75;;;16.70;99.90;;;;;;5135871;27;20053;-86
2022/07/22 09:17:38;;;;;;;4.25;0.68;;;16.80;99.90;;;;;;5136641;27;20059;-86
2022/07/22 09:20:25;;;;;;;5.25;1.00;;;16.80;99.90;;;;;;5135963;27;20124;-86
2022/07/22 09:22:51;;;;;;;2.42;0.57;;;16.80;99.90;;;;;;5118239;27;20458;-86
2022/07/22 09:25:34;;;;;;;2.83;0.75;;;16.90;99.90;;;;;;5136490;27;20497;-84
2022/07/22 09:28:06;;;;;;;1.25;0.40;;;17.00;99.90;;;;;;5117609;27;20047;-84
2022/07/22 09:30:34;;;;;;;0.93;0.40;;;17.00;99.90;;;;;;5118110;27;20047;-85
2022/07/22 09:32:59;;;;;;;1.35;0.43;;;17.00;99.90;;;;;;5136330;27;20047;-85
2022/07/22 09:35:26;;;;;;;2.47;0.50;;;17.00;99.90;;;;;;5135483;27;20042;-86
2022/07/22 09:37:54;;;;;;;1.70;0.38;;;17.00;99.90;;;;;;5117852;27;20125;-86
2022/07/22 09:40:25;;;;;;;1.55;0.40;;;17.00;99.90;;;;;;5136210;27;20122;-82
2022/07/22 09:42:52;;;;;;;1.02;0.30;;;17.10;99.90;;;;;;5117374;27;20126;-86
2022/07/22 09:45:20;;;;;;;3.28;0.55;;;17.10;99.90;;;;;;5136200;27;20121;-87
2022/07/22 09:47:47;;;;;;;4.20;0.52;;;17.10;99.90;;;;;;5136082;27;20039;-85
2022/07/22 09:50:17;;;;;;;2.70;1.02;;;17.20;99.90;;;;;;5116817;27;20428;-86
2022/07/22 09:52:44;;;;;;;2.30;0.40;;;17.20;99.90;;;;;;5117737;27;20047;-85
2022/07/22 09:55:10;;;;;;;1.73;0.35;;;17.30;99.90;;;;;;5116879;27;20058;-86
2022/07/22 09:57:36;;;;;;;5.03;0.63;;;17.30;99.90;;;;;;5136063;27;20035;-86
2022/07/22 10:00:03;;;;;;;2.17;0.60;;;17.40;99.90;;;;;;5135926;27;20118;-87
2022/07/22 10:02:30;;;;;;;3.15;0.50;;;17.40;99.90;;;;;;5135050;27;20108;-86
2022/07/22 10:04:58;;;;;;;3.10;0.47;;;17.50;99.90;;;;;;5136092;27;20042;-86
2022/07/22 10:07:26;;;;;;;1.25;0.40;;;17.60;99.90;;;;;;5135782;27;20129;-84
2022/07/22 10:09:53;;;;;;;3.22;0.73;;;17.60;99.90;;;;;;5134970;27;20039;-86
2022/07/22 10:12:20;;;;;;;0.73;0.32;;;17.60;99.90;;;;;;5135789;27;20039;-84
2022/07/22 10:14:46;;;;;;;1.80;0.70;;;17.60;99.90;;;;;;5135692;27;20046;-86
2022/07/22 10:17:14;;;;;;;2.53;0.60;;;17.60;99.90;;;;;;5133611;27;20101;-85
2022/07/22 10:19:40;;;;;;;2.60;0.70;;;17.60;99.90;;;;;;5135660;27;20099;-85
2022/07/22 10:22:38;;;;;;;2.67;0.55;;;17.60;99.90;;;;;;5117354;27;20040;-84
2022/07/22 10:25:04;;;;;;;2.55;0.82;;;17.70;99.90;;;;;;5116034;27;20544;-85
2022/07/22 10:27:50;;;;;;;1.30;0.50;;;17.70;99.90;;;;;;5135379;27;20126;-83
2022/07/22 10:30:21;;;;;;;1.55;0.65;;;17.70;99.90;;;;;;5116492;27;20092;-84
2022/07/22 10:33:05;;;;;;;3.72;0.80;;;17.70;99.90;;;;;;5117185;27;20050;-85
2022/07/22 10:35:32;;;;;;;5.00;0.70;;;17.60;99.90;;;;;;5135347;27;20065;-84
2022/07/22 10:38:01;;;;;;;4.85;0.90;;;17.60;99.90;;;;;;5134399;27;20054;-85
2022/07/22 10:40:45;;;;;;;3.70;0.80;;;17.60;99.90;;;;;;5135864;27;20082;-85
2022/07/22 10:43:12;;;;;;;7.07;0.85;;;17.70;99.90;;;;;;5135274;27;20035;-85
2022/07/22 10:45:45;;;;;;;3.00;0.80;;;17.70;99.90;;;;;;5134130;27;20054;-85
2022/07/22 10:48:22;;;;;;;3.38;0.60;;;17.70;99.90;;;;;;5135046;27;20509;-85
2022/07/22 10:50:50;;;;;;;4.03;0.60;;;17.70;99.90;;;;;;5134866;27;20479;-85
2022/07/22 10:53:18;;;;;;;3.38;0.63;;;17.80;99.90;;;;;;5134280;27;20035;-85
2022/07/22 10:56:04;;;;;;;4.25;0.82;;;17.90;99.90;;;;;;5135049;27;20061;-84
2022/07/22 10:58:32;;;;;;;7.22;1.00;;;17.90;99.90;;;;;;5134229;27;20465;-85
2022/07/22 11:01:03;;;;;;;3.42;0.90;;;18.00;99.90;;;;;;5134650;27;20394;-85
2022/07/22 11:03:32;;;;;;;4.30;0.85;;;18.10;99.90;;;;;;5116660;27;20046;-85
2022/07/22 11:06:20;;;;;;;1.80;0.57;;;18.10;99.90;;;;;;5133993;27;20047;-86
2022/07/22 11:08:54;;;;;;;3.47;0.77;;;18.20;99.90;;;;;;5134843;27;20051;-85
2022/07/22 11:11:38;;;;;;;2.95;0.60;;;18.30;99.90;;;;;;5134638;27;20054;-85
2022/07/22 11:14:12;;;;;;;4.43;1.17;;;18.40;99.90;;;;;;5133861;27;20486;-85
2022/07/22 11:16:38;;;;;;;2.10;0.75;;;18.40;99.90;;;;;;5134486;27;20148;-84
2022/07/22 11:19:04;;;;;;;3.35;0.73;;;18.40;99.90;;;;;;5116308;27;20055;-84
2022/07/22 11:21:32;;;;;;;3.55;0.80;;;18.50;99.90;;;;;;5133720;27;20035;-85
2022/07/22 11:24:04;;;;;;;1.20;0.35;;;18.50;99.90;;;;;;5115950;28;20083;-85
2022/07/22 11:26:42;;;;;;;4.60;1.17;;;18.50;99.90;;;;;;5115499;28;20122;-85
2022/07/22 11:29:09;;;;;;;2.35;0.55;;;18.50;99.90;;;;;;5121480;27;20042;-85
2022/07/22 11:31:37;;;;;;;2.00;0.57;;;18.40;99.90;;;;;;5141347;27;20035;-85
2022/07/22 11:34:06;;;;;;;3.88;0.60;;;18.30;99.90;;;;;;5140409;27;20043;-85
2022/07/22 11:36:34;;;;;;;1.45;0.85;;;18.30;99.90;;;;;;5141410;27;20031;-85
2022/07/22 11:39:00;;;;;;;1.55;0.50;;;18.20;99.90;;;;;;5141112;27;20550;-85
2022/07/22 11:41:29;;;;;;;1.83;0.60;;;18.20;99.90;;;;;;5140299;27;20125;-85
2022/07/22 11:43:56;;;;;;;2.83;0.40;;;18.20;99.90;;;;;;5122778;27;20043;-85
2022/07/22 11:46:25;;;;;;;3.50;0.75;;;18.10;99.90;;;;;;5141275;27;20128;-86
2022/07/22 11:48:56;;;;;;;3.00;0.52;;;18.10;99.90;;;;;;5121924;27;20039;-85
2022/07/22 11:51:29;;;;;;;2.35;0.50;;;18.10;99.90;;;;;;5141339;27;20047;-85
2022/07/22 11:53:54;;;;;;;1.35;0.40;;;18.10;99.90;;;;;;5141300;27;20043;-85
2022/07/22 11:56:20;;;;;;;2.88;0.70;;;18.10;99.90;;;;;;5140426;27;20390;-85
2022/07/22 11:58:55;;;;;;;2.35;0.30;;;18.00;99.90;;;;;;5123021;27;20051;-85
2022/07/22 12:01:28;;;;;;;0.98;0.40;;;18.00;99.90;;;;;;5140950;27;20047;-85
2022/07/22 12:04:08;;;;;;;0.52;0.30;;;18.00;99.90;;;;;;5140764;27;20035;-85
2022/07/22 12:06:38;;;;;;;2.20;0.30;;;18.00;99.90;;;;;;5141150;27;20042;-85
2022/07/22 12:09:10;;;;;;;0.73;0.30;;;18.00;99.90;;;;;;5140315;27;20401;-85
2022/07/22 12:11:37;;;;;;;1.00;0.38;;;18.10;99.90;;;;;;5141027;27;20071;-85
2022/07/22 12:14:09;;;;;;;1.40;0.40;;;18.00;99.90;;;;;;5141500;27;20039;-85
2022/07/22 12:16:36;;;;;;;4.25;0.50;;;18.00;99.90;;;;;;5140221;27;20055;-86
2022/07/22 12:19:07;;;;;;;1.70;0.82;;;17.90;99.90;;;;;;5140820;27;20050;-86
2022/07/22 12:21:36;;;;;;;1.60;0.50;;;17.90;99.90;;;;;;5140876;27;20051;-85
2022/07/22 12:24:10;;;;;;;3.17;0.50;;;17.90;99.90;;;;;;5140017;27;20039;-85
2022/07/22 12:26:49;;;;;;;2.47;0.57;;;17.90;99.90;;;;;;5141048;27;20402;-86
2022/07/22 12:29:45;;;;;;;3.85;0.30;;;17.90;99.90;;;;;;5140928;27;20391;-85
2022/07/22 12:32:23;;;;;;;5.10;0.57;;;17.90;99.90;;;;;;5140631;27;20039;-86
2022/07/22 12:34:55;;;;;;;1.48;0.55;;;17.90;99.90;;;;;;5140852;27;20088;-85
2022/07/22 12:37:23;;;;;;;2.53;0.50;;;17.90;99.90;;;;;;5140047;27;20039;-85
2022/07/22 12:40:08;;;;;;;3.05;0.50;;;17.90;99.90;;;;;;5119560;27;20039;-86
2022/07/22 12:42:39;;;;;;;;;;;18.10;99.90;;;;;;5119692;27;20100;-86
2022/07/22 12:45:16;;;;;;;2.40;0.40;;;18.00;99.90;;;;;;5136470;27;20014;-86
2022/07/22 12:47:54;;;;;;;3.20;0.60;;;18.10;99.90;;;;;;5118905;27;20494;-86